createdAt,value
2022-11-16T04:51:15.545Z,70.45
2022-11-16T04:54:19.416Z,76.30
2022-11-16T04:57:22.078Z,69.23
2022-11-16T05:00:25.568Z,61.50
2022-11-16T05:03:28.021Z,57.22
2022-11-16T05:06:31.085Z,75.05
2022-11-16T05:09:33.746Z,69.30
2022-11-16T05:12:36.697Z,64.30
2022-11-16T05:15:40.338Z,62.10
2022-11-16T05:18:43.252Z,65.15
2022-11-16T05:21:47.421Z,58.20
2022-11-16T05:24:50.289Z,64.33
2022-11-16T05:27:53.798Z,66.95
2022-11-16T05:30:56.469Z,53.03
2022-11-16T05:33:58.945Z,60.55
2022-11-16T05:37:02.341Z,59.83
2022-11-16T05:40:05.576Z,62.72
2022-11-16T05:43:09.133Z,65.37
2022-11-16T05:46:12.197Z,59.00
2022-11-16T05:49:16.125Z,56.78
2022-11-16T05:52:19.359Z,61.22
2022-11-16T05:55:21.965Z,79.17
2022-11-16T05:58:24.344Z,60.25
2022-11-16T06:01:27.053Z,62.93
2022-11-16T06:04:29.829Z,64.33
2022-11-16T06:07:34.156Z,62.50
2022-11-16T06:10:37.066Z,71.45
2022-11-16T06:13:40.213Z,62.85
2022-11-16T06:16:43.131Z,55.12
2022-11-16T06:19:46.004Z,62.05
2022-11-16T06:22:48.889Z,56.10
2022-11-16T06:25:55.481Z,62.47
2022-11-16T06:28:58.836Z,71.85
2022-11-16T06:32:01.246Z,64.37
2022-11-16T06:35:04.494Z,65.55
2022-11-16T06:38:09.004Z,64.05
2022-11-16T06:41:11.655Z,60.75
2022-11-16T06:44:14.593Z,62.45
2022-11-16T06:47:17.831Z,50.65
2022-11-16T06:50:20.864Z,74.12
2022-11-16T06:53:28.936Z,69.53
2022-11-16T06:56:34.964Z,63.50
2022-11-16T06:59:37.569Z,67.93
2022-11-16T07:02:40.521Z,67.35
2022-11-16T07:05:43.540Z,61.50
2022-11-16T07:08:46.197Z,72.27
2022-11-16T07:11:50.014Z,68.15
2022-11-16T07:14:53.229Z,67.65
2022-11-16T07:17:56.944Z,68.62
2022-11-16T07:21:14.936Z,75.80
2022-11-16T07:24:18.617Z,69.32
2022-11-16T07:27:22.347Z,69.60
2022-11-16T07:30:25.955Z,67.22
2022-11-16T07:33:29.445Z,68.30
2022-11-16T07:36:34.969Z,73.20
2022-11-16T07:39:37.654Z,62.20
2022-11-16T07:42:43.561Z,70.03
2022-11-16T07:45:48.395Z,64.62
2022-11-16T07:48:51.084Z,79.07
2022-11-16T07:51:55.782Z,61.80
2022-11-16T07:55:01.603Z,69.75
2022-11-16T07:58:04.970Z,60.65
2022-11-16T08:01:13.299Z,66.20
2022-11-16T08:04:17.537Z,67.68
2022-11-16T08:07:20.283Z,59.80
2022-11-16T08:10:23.841Z,71.50
2022-11-16T08:13:26.647Z,63.13
2022-11-16T08:16:29.374Z,68.87
2022-11-16T08:22:36.352Z,72.60
2022-11-16T08:25:39.183Z,77.30
2022-11-16T08:28:43.519Z,65.73
2022-11-16T08:31:46.280Z,58.75
2022-11-16T08:34:49.016Z,67.55
2022-11-16T08:37:51.533Z,70.57
2022-11-16T08:40:56.028Z,58.50
2022-11-16T08:44:00.145Z,65.32
2022-11-16T08:47:03.569Z,75.12
2022-11-16T08:50:06.577Z,66.87
2022-11-16T08:53:10.635Z,66.62
2022-11-16T08:56:13.637Z,63.97
2022-11-16T08:59:17.324Z,67.18
2022-11-16T09:02:25.312Z,65.85
2022-11-16T09:05:28.394Z,70.30
2022-11-16T09:08:31.551Z,61.53
2022-11-16T09:14:36.526Z,71.60
2022-11-16T09:17:39.160Z,67.37
2022-11-16T09:20:45.499Z,57.75
2022-11-16T09:23:48.884Z,66.00
2022-11-16T09:26:51.194Z,71.62
2022-11-16T09:29:53.742Z,66.10
2022-11-16T09:33:00.324Z,64.90
2022-11-16T09:36:08.583Z,79.00
2022-11-16T09:39:30.534Z,64.60
2022-11-16T09:42:54.000Z,67.82
2022-11-16T09:46:26.832Z,57.22
2022-11-16T09:49:43.748Z,60.00
2022-11-16T09:52:51.462Z,64.53
2022-11-16T09:56:08.727Z,65.93
2022-11-16T09:59:25.314Z,61.67
2022-11-16T10:02:34.526Z,63.83
2022-11-16T10:06:38.772Z,63.70
2022-11-16T10:09:41.801Z,58.47
2022-11-16T10:13:19.798Z,64.05
2022-11-16T10:16:44.786Z,51.78
2022-11-16T10:20:02.697Z,62.33
2022-11-16T10:23:53.800Z,54.53
2022-11-16T10:27:34.509Z,62.08
2022-11-16T10:30:46.522Z,63.05
2022-11-16T10:33:54.366Z,56.50
2022-11-16T10:37:07.697Z,56.47
2022-11-16T10:40:20.692Z,59.17
2022-11-16T10:43:30.151Z,66.63
2022-11-16T10:46:40.241Z,60.53
2022-11-16T10:50:11.861Z,56.85
2022-11-16T10:53:25.103Z,62.95
2022-11-16T10:56:37.206Z,56.10
2022-11-16T11:00:00.257Z,55.63
2022-11-16T11:03:03.143Z,51.00
2022-11-16T11:06:11.285Z,59.95
2022-11-16T11:09:27.474Z,53.58
2022-11-16T11:12:39.361Z,46.20
2022-11-16T11:15:42.846Z,51.33
2022-11-16T11:18:45.458Z,56.40
2022-11-16T11:21:48.764Z,54.63
2022-11-16T11:24:52.243Z,55.25
2022-11-16T11:28:28.850Z,52.10
2022-11-16T11:31:47.097Z,47.92
2022-11-16T11:34:53.215Z,51.08
2022-11-16T11:37:59.596Z,51.00
2022-11-16T11:41:06.737Z,58.10
2022-11-16T11:44:17.105Z,49.65
2022-11-16T11:51:13.414Z,55.78
2022-11-16T11:54:35.721Z,53.05
2022-11-16T11:57:42.513Z,47.70
2022-11-16T12:00:56.991Z,48.30
2022-11-16T12:04:18.399Z,55.08
2022-11-16T12:07:43.917Z,55.55
2022-11-16T12:10:52.842Z,50.35
2022-11-16T12:14:11.487Z,52.50
2022-11-16T12:17:26.724Z,48.55
2022-11-16T12:20:57.798Z,47.75
2022-11-16T12:24:20.829Z,47.62
2022-11-16T12:27:51.275Z,44.40
2022-11-16T12:31:19.604Z,49.33
2022-11-16T12:34:35.562Z,44.50
2022-11-16T12:37:41.137Z,41.63
2022-11-16T12:40:58.891Z,47.88
2022-11-16T12:44:08.683Z,44.60
2022-11-16T12:47:37.688Z,41.08
2022-11-16T12:50:57.656Z,46.55
2022-11-16T12:54:33.945Z,41.53
2022-11-16T12:58:14.394Z,41.35
2022-11-16T13:01:37.396Z,41.83
2022-11-16T13:04:57.544Z,40.83
2022-11-16T13:08:10.717Z,38.88
2022-11-16T13:11:25.285Z,35.78
2022-11-16T13:14:46.840Z,36.70
2022-11-16T13:17:57.766Z,42.97
2022-11-16T13:21:21.461Z,34.05
2022-11-16T13:27:38.119Z,46.17
2022-11-16T13:31:01.897Z,33.80
2022-11-16T13:34:15.725Z,40.80
2022-11-16T13:37:46.132Z,37.67
2022-11-16T13:40:48.553Z,40.40
2022-11-16T13:43:51.104Z,36.80
2022-11-16T13:47:05.808Z,31.60
2022-11-16T13:50:18.362Z,34.90
2022-11-16T13:54:42.670Z,32.42
2022-11-16T13:56:58.763Z,34.72
2022-11-16T14:00:00.997Z,29.33
2022-11-16T14:03:15.438Z,37.15
2022-11-16T14:06:24.045Z,30.40
2022-11-16T14:09:48.788Z,32.58
2022-11-16T14:12:53.501Z,30.75
2022-11-16T14:16:14.771Z,31.85
2022-11-16T14:19:49.094Z,30.67
2022-11-16T14:22:56.805Z,27.85
2022-11-16T14:26:12.853Z,29.67
2022-11-16T14:29:24.391Z,29.02
2022-11-16T14:32:33.173Z,26.92
2022-11-16T14:35:40.078Z,27.62
2022-11-16T14:38:43.561Z,25.33
2022-11-16T14:41:47.160Z,24.10
2022-11-16T14:44:50.414Z,22.95
2022-11-16T14:47:58.983Z,24.27
2022-11-16T14:51:13.413Z,23.48
2022-11-16T14:54:33.924Z,20.73
2022-11-16T14:57:36.479Z,22.17
2022-11-16T15:00:38.846Z,23.17
2022-11-16T15:03:54.977Z,24.37
2022-11-16T15:07:03.248Z,27.95
2022-11-16T15:10:14.756Z,24.95
2022-11-16T15:13:23.037Z,21.27
2022-11-16T15:16:26.086Z,21.12
2022-11-16T15:19:30.269Z,24.03
2022-11-16T15:22:40.490Z,28.40
2022-11-16T15:25:54.545Z,31.75
2022-11-16T15:28:57.302Z,31.10
2022-11-16T15:31:59.734Z,28.23
2022-11-16T15:35:05.364Z,28.85
2022-11-16T15:38:20.154Z,27.15
2022-11-16T15:41:24.595Z,25.98
2022-11-16T15:44:28.129Z,30.15
2022-11-16T15:50:33.156Z,24.30
2022-11-16T15:53:44.336Z,27.17
2022-11-16T15:56:47.431Z,27.77
2022-11-16T15:59:54.657Z,30.23
2022-11-16T16:03:05.586Z,29.77
2022-11-16T16:06:15.468Z,26.98
2022-11-16T16:09:22.745Z,32.55
2022-11-16T16:12:26.764Z,30.37
2022-11-16T16:15:33.975Z,24.05
2022-11-16T16:18:42.968Z,29.80
2022-11-16T16:21:46.833Z,25.90
2022-11-16T16:24:49.410Z,24.60
2022-11-16T16:27:51.857Z,23.92
2022-11-16T16:30:54.501Z,24.70
2022-11-16T16:33:56.925Z,23.83
2022-11-16T16:36:59.436Z,26.80
2022-11-16T16:40:02.061Z,24.42
2022-11-16T16:43:04.681Z,22.67
2022-11-16T16:46:07.114Z,31.62
